Aeroporto :
LOGIN :

Iscrizione | Disclaimer

   EN    FR    IT 

 










Sommario :    VFR   VFR Marginale   IFR   IFR Intensivo   IFR Molto Intensivo
Visibilità : 
Base nubi : 
>= 8 km
>= 3000ft
5 / 8 km
1000 / 3000 ft
1500m / 5 km
500 / 1000 ft
800 / 1500m
200 / 500 ft
< 800m
< 200 ft
Simboli :   Temporali  Nebbia  Neve Forte  Precipitazioni Forti  Vento > 20 kt
SIGMETs :   Varie  Temporali  Ghiacco  Turbolenza  Onda orograficha  Ceneri Vulcaniche






- Altitudine del aeroporto : 1496 ft
- Codice IATA : SBZ


LRSB - Sibiu

ULTIMO METAR :
  • 080530Z 09003KT CAVOK 04/M04 Q1031 NOSIG

METARs OBSOLETI :
  • 080500Z 06002KT CAVOK 01/M04 Q1031
  • 080430Z VRB01KT CAVOK M01/M06 Q1031
  • 080400Z 00000KT CAVOK M01/M07 Q1031
  • 080330Z 11001KT CAVOK 00/M07 Q1031
  • 080300Z VRB01KT CAVOK M01/M07 Q1031

TAF TAF LRSB
Valido dal 08 a 06 ore il 09 a 06 ore UTC


080500Z 0806/0906 VRB04KT CAVOK



MetMap, La meteo Aeronautica in un colpo d'occhio ! - Copyright ORBIFLY Dicembre 2007 - Disclaimer

ORBIFLY MET'MAP TEAM :

Programmazione e sviluppo : Alexandra Zaïnal
Concezione : Baudouin d'Aumeries
Aiuto per la programmazione : Marc-Olivier Méhu
Supporto tecnico e logistico : Manuel Goepfert
Aiuto per la traduzione : Arnaldo La Scala

Contatto : metmap@orbifly.com




FONTI E CREDITI :

   NOAA